createdAt,value
2023-04-07T00:01:15.698Z,3.4375
2023-04-07T00:04:16.374Z,2.7875
2023-04-07T00:07:16.120Z,2.9250000000000003
2023-04-07T00:11:16.179Z,2.9625000000000004
2023-04-07T00:14:17.091Z,2.6375
2023-04-07T00:17:16.595Z,2.6625
2023-04-07T00:21:16.106Z,3.0875000000000004
2023-04-07T00:24:27.142Z,3.2125000000000004
2023-04-07T00:27:16.408Z,2.8
2023-04-07T00:31:16.520Z,2.6625
2023-04-07T00:34:17.228Z,2.675
2023-04-07T00:37:16.769Z,2.5125
2023-04-07T00:41:16.072Z,2.6625
2023-04-07T00:44:16.262Z,2.8125
2023-04-07T00:47:16.608Z,2.5375
2023-04-07T00:51:17.289Z,2.75
2023-04-07T00:54:17.887Z,2.8375
2023-04-07T00:57:17.052Z,2.55
2023-04-07T01:01:21.846Z,2.2875
2023-04-07T01:04:25.683Z,2.4375
2023-04-07T01:07:22.569Z,2.5374999999999996
2023-04-07T01:11:23.718Z,2.9625000000000004
2023-04-07T01:14:19.517Z,2.7749999999999995
2023-04-07T01:17:20.194Z,2.55
2023-04-07T01:21:18.295Z,3.2625
2023-04-07T01:24:37.934Z,3.325
2023-04-07T01:27:24.311Z,2.4625
2023-04-07T01:31:16.616Z,2.325
2023-04-07T01:34:17.367Z,2.7875
2023-04-07T01:37:16.870Z,2.575
2023-04-07T01:41:16.834Z,2.9375
2023-04-07T01:44:17.457Z,2.5375
2023-04-07T01:47:16.927Z,3.1875
2023-04-07T01:51:22.056Z,3.5375
2023-04-07T01:54:16.778Z,2.75
2023-04-07T01:57:16.417Z,2.7625
2023-04-07T02:01:15.917Z,2.5625
2023-04-07T02:04:24.081Z,3
2023-04-07T02:07:21.209Z,2.9
2023-04-07T02:11:20.022Z,3.0250000000000004
2023-04-07T02:14:18.931Z,3.2375
2023-04-07T02:17:18.123Z,2.8875
2023-04-07T02:21:17.349Z,3.1624999999999996
2023-04-07T02:24:19.667Z,3.125
2023-04-07T02:27:16.778Z,3.25
2023-04-07T02:31:16.265Z,2.925
2023-04-07T02:34:16.381Z,2.7
2023-04-07T02:37:16.335Z,2.7125
2023-04-07T02:41:16.129Z,3.675
2023-04-07T02:44:16.569Z,2.4125
2023-04-07T02:47:16.566Z,3
2023-04-07T02:51:15.878Z,3.075
2023-04-07T02:54:16.135Z,3.2624999999999997
2023-04-07T02:57:16.289Z,2.9125
2023-04-07T03:01:15.980Z,2.9625
2023-04-07T03:04:16.683Z,2.875
2023-04-07T03:07:16.320Z,2.8125
2023-04-07T03:11:15.679Z,3.9124999999999996
2023-04-07T03:14:16.332Z,3.2125
2023-04-07T03:17:15.904Z,3.4125
2023-04-07T03:21:15.768Z,4.050000000000001
2023-04-07T03:24:16.623Z,4.612500000000001
2023-04-07T03:27:17.314Z,4.6875
2023-04-07T03:31:15.928Z,5.925
2023-04-07T03:34:15.976Z,5.762499999999999
2023-04-07T03:37:16.064Z,3.4625
2023-04-07T03:41:15.611Z,3.8875
2023-04-07T03:44:16.011Z,3.45
2023-04-07T03:47:16.188Z,2.7875
2023-04-07T03:51:16.076Z,3.1875
2023-04-07T03:54:16.150Z,3.0875000000000004
2023-04-07T03:57:16.465Z,3.575
2023-04-07T04:01:16.254Z,3.625
2023-04-07T04:04:16.239Z,2.9125
2023-04-07T04:07:16.180Z,3.3
2023-04-07T04:11:16.319Z,2.6374999999999997
2023-04-07T04:14:16.668Z,2.9125
2023-04-07T04:17:16.596Z,2.5
2023-04-07T04:21:16.574Z,3.1625
2023-04-07T04:24:16.874Z,2.9375
2023-04-07T04:27:16.794Z,3.075
2023-04-07T04:31:15.475Z,4.2375
2023-04-07T04:34:15.922Z,3.3125
2023-04-07T04:37:15.935Z,3.2375
2023-04-07T04:41:16.409Z,3.2874999999999996
2023-04-07T04:44:16.582Z,3.1
2023-04-07T04:47:16.860Z,3.125
2023-04-07T04:51:15.939Z,3.075
2023-04-07T04:54:16.280Z,3.7750000000000004
2023-04-07T04:57:16.126Z,3.9499999999999997
2023-04-07T05:01:16.592Z,3.3499999999999996
2023-04-07T05:04:18.123Z,2.5375
2023-04-07T05:07:16.614Z,3.325
2023-04-07T05:11:16.246Z,2.8499999999999996
2023-04-07T05:14:16.577Z,3.7375000000000003
2023-04-07T05:17:16.579Z,2.4375
2023-04-07T05:21:15.987Z,3.1750000000000003
2023-04-07T05:24:16.162Z,3.0875
2023-04-07T05:27:16.533Z,3.5625
2023-04-07T05:31:16.306Z,3.8625
2023-04-07T05:34:16.287Z,3.6500000000000004
2023-04-07T05:37:16.586Z,4.0249999999999995
2023-04-07T05:41:16.152Z,3.225
2023-04-07T05:44:16.264Z,3.025
2023-04-07T05:47:16.224Z,4.1875
2023-04-07T05:51:16.761Z,2.925
2023-04-07T05:54:16.643Z,2.5875000000000004
2023-04-07T05:57:16.583Z,3.4875
2023-04-07T06:01:15.939Z,4.05
2023-04-07T06:04:16.170Z,4.1
2023-04-07T06:07:16.334Z,3.5999999999999996
2023-04-07T06:11:18.918Z,3.6500000000000004
2023-04-07T06:14:19.287Z,3.075
2023-04-07T06:17:19.533Z,4.0625
2023-04-07T06:21:16.601Z,3.6999999999999997
2023-04-07T06:24:17.050Z,3.125
2023-04-07T06:27:17.139Z,3.125
2023-04-07T06:31:16.957Z,3.5999999999999996
2023-04-07T06:34:16.820Z,4.0375
2023-04-07T06:37:16.950Z,3.275
2023-04-07T06:41:17.232Z,3.9
2023-04-07T06:44:17.033Z,3.95
2023-04-07T06:47:16.907Z,3.7125000000000004
2023-04-07T06:51:17.002Z,3.6375
2023-04-07T06:54:17.004Z,3.5875000000000004
2023-04-07T06:57:17.636Z,2.975
2023-04-07T07:01:16.556Z,4.9125
2023-04-07T07:04:17.111Z,2.8375
2023-04-07T07:07:16.723Z,3.5125
2023-04-07T07:11:18.697Z,3.5250000000000004
2023-04-07T07:14:17.930Z,3.7125000000000004
2023-04-07T07:17:17.795Z,3.925
2023-04-07T07:21:18.359Z,3.75
2023-04-07T07:31:19.241Z,6.7875
2023-04-07T07:34:16.990Z,6.7375
2023-04-07T07:37:17.091Z,6.6625
2023-04-07T07:41:16.802Z,5.8375
2023-04-07T07:44:17.051Z,5.2125
2023-04-07T07:47:17.410Z,5.15
2023-04-07T07:51:16.953Z,5.1
2023-04-07T07:54:17.748Z,4.5125
2023-04-07T07:57:17.527Z,5.824999999999999
2023-04-07T08:01:16.849Z,5.6875
2023-04-07T08:04:17.446Z,4.612500000000001
2023-04-07T08:07:17.111Z,5.25
2023-04-07T08:11:16.152Z,5.6125
2023-04-07T08:14:16.911Z,5.175000000000001
2023-04-07T08:17:16.611Z,4.75
2023-04-07T08:21:16.416Z,5.449999999999999
2023-04-07T08:24:16.934Z,4.8374999999999995
2023-04-07T08:27:16.597Z,3.95
2023-04-07T08:31:17.133Z,4.2125
2023-04-07T08:34:16.970Z,4.2
2023-04-07T08:37:17.500Z,4.862500000000001
2023-04-07T08:41:23.825Z,4.7
2023-04-07T08:44:17.101Z,4.5
2023-04-07T08:47:17.683Z,5.05
2023-04-07T08:51:25.383Z,4.8125
2023-04-07T08:54:19.366Z,5.487499999999999
2023-04-07T08:57:18.716Z,4.9750000000000005
2023-04-07T09:01:18.872Z,5.6
2023-04-07T09:04:18.165Z,4.425
2023-04-07T09:07:17.833Z,4.7875
2023-04-07T09:11:16.449Z,4.3
2023-04-07T09:14:20.079Z,5.175
2023-04-07T09:17:16.848Z,5.2
2023-04-07T09:21:16.798Z,5.012499999999999
2023-04-07T09:24:21.615Z,4.55
2023-04-07T09:27:18.827Z,4.3625
2023-04-07T09:31:17.178Z,5.7125
2023-04-07T09:34:24.725Z,4.2625
2023-04-07T09:37:21.955Z,5.0625
2023-04-07T09:41:17.258Z,4.5375
2023-04-07T09:44:18.069Z,4.425
2023-04-07T09:47:17.370Z,3.7874999999999996
2023-04-07T09:51:17.050Z,4.2
2023-04-07T09:54:32.020Z,4.1625
2023-04-07T09:57:21.657Z,4.2250000000000005
2023-04-07T10:01:17.571Z,4.3
2023-04-07T10:04:18.341Z,4.8125
2023-04-07T10:07:16.732Z,4.2875
2023-04-07T10:11:16.640Z,4.300000000000001
2023-04-07T10:14:18.048Z,3.2375000000000003
2023-04-07T10:17:19.643Z,4.175
2023-04-07T10:21:16.703Z,4.4375
2023-04-07T10:24:37.416Z,3.2875
2023-04-07T10:27:21.913Z,4.050000000000001
2023-04-07T10:31:17.666Z,3.7
2023-04-07T10:34:17.531Z,3.2375
2023-04-07T10:37:19.767Z,3.3625
2023-04-07T10:41:33.953Z,3.1624999999999996
2023-04-07T10:44:49.998Z,3.325
2023-04-07T10:47:17.768Z,3.375
2023-04-07T10:51:17.435Z,3.8625
2023-04-07T10:54:19.208Z,3.375
2023-04-07T10:57:17.414Z,3.9124999999999996
2023-04-07T11:01:18.424Z,4.4
2023-04-07T11:04:16.028Z,3.65
2023-04-07T11:07:16.434Z,4.575
2023-04-07T11:11:33.619Z,4.8
2023-04-07T11:14:25.456Z,4.6875
2023-04-07T11:17:17.497Z,4.2125
2023-04-07T11:21:18.386Z,4.4625
2023-04-07T11:24:31.643Z,4.0125
2023-04-07T11:27:16.369Z,4.5375
2023-04-07T11:31:21.294Z,3.975
2023-04-07T11:34:16.636Z,4.4
2023-04-07T11:37:20.886Z,3.025
2023-04-07T11:41:16.055Z,3.375
2023-04-07T11:44:16.142Z,3.075
2023-04-07T11:47:16.206Z,3.3875
2023-04-07T11:51:17.836Z,3.4
2023-04-07T11:54:16.434Z,3.3
2023-04-07T11:57:24.581Z,2.8375
2023-04-07T12:01:16.868Z,3.0875
2023-04-07T12:04:17.992Z,3.4
2023-04-07T12:07:16.501Z,2.7375
2023-04-07T12:21:16.123Z,2.9124999999999996
2023-04-07T12:24:17.225Z,3.2875
2023-04-07T12:27:16.264Z,3.0375
2023-04-07T12:31:15.981Z,2.6
2023-04-07T12:34:16.389Z,3.575
2023-04-07T12:37:16.436Z,3.4124999999999996
2023-04-07T12:41:16.340Z,3.3
2023-04-07T12:44:16.870Z,3.5875
2023-04-07T12:47:17.472Z,4.862500000000001
2023-04-07T12:51:16.710Z,4.0375
2023-04-07T12:54:16.883Z,3.7874999999999996
2023-04-07T12:57:16.819Z,4.5375
2023-04-07T13:01:16.910Z,4.25
2023-04-07T13:04:18.063Z,3.5
2023-04-07T13:07:16.472Z,3.75
2023-04-07T13:11:15.594Z,4.2375
2023-04-07T13:14:16.243Z,3.5625
2023-04-07T13:17:15.854Z,3.1875
2023-04-07T13:24:16.672Z,4.0875
2023-04-07T13:27:16.650Z,3.7625
2023-04-07T13:31:16.416Z,3.3125
2023-04-07T13:34:17.114Z,2.875
2023-04-07T13:37:17.451Z,4.2875
2023-04-07T13:41:16.287Z,3.7500000000000004
2023-04-07T13:44:17.024Z,4.1875
2023-04-07T13:47:19.755Z,3.775
2023-04-07T13:51:16.397Z,3.5125
2023-04-07T13:54:16.946Z,3.0250000000000004
2023-04-07T13:57:20.714Z,3
2023-04-07T14:01:16.124Z,3.75
2023-04-07T14:04:16.085Z,3.475
2023-04-07T14:07:16.097Z,4.225
2023-04-07T14:11:16.463Z,3.9375
2023-04-07T14:14:16.046Z,3.4749999999999996
2023-04-07T14:17:15.783Z,4.5874999999999995
2023-04-07T14:21:16.020Z,3.8874999999999997
2023-04-07T14:24:16.775Z,3.6499999999999995
2023-04-07T14:27:20.823Z,3.625
2023-04-07T14:31:16.501Z,2.9
2023-04-07T14:34:16.720Z,3.15
2023-04-07T14:37:18.157Z,3.825
2023-04-07T14:41:16.689Z,3.625
2023-04-07T14:44:17.040Z,2.6875
2023-04-07T14:47:16.633Z,2.7375000000000003
2023-04-07T14:51:16.623Z,3.9
2023-04-07T14:54:16.905Z,3.1999999999999997
2023-04-07T14:57:17.334Z,3.4
2023-04-07T15:01:16.334Z,2.8875
2023-04-07T15:04:16.430Z,3.6875
2023-04-07T15:07:16.407Z,2.8874999999999997
2023-04-07T15:11:16.162Z,3.025
2023-04-07T15:14:16.454Z,2.65
2023-04-07T15:17:16.447Z,2.9375
2023-04-07T15:21:16.945Z,3.1
2023-04-07T15:24:16.801Z,2.1125000000000003
2023-04-07T15:27:16.664Z,2.3625
2023-04-07T15:31:16.241Z,2.3625
2023-04-07T15:34:16.641Z,2.4625
2023-04-07T15:37:17.464Z,1.8375
2023-04-07T15:41:16.955Z,2.7249999999999996
2023-04-07T15:44:17.626Z,2.6375
2023-04-07T15:47:16.620Z,2.55
2023-04-07T15:51:15.784Z,2.925
2023-04-07T15:54:16.182Z,2.8125
2023-04-07T15:57:16.753Z,2.6499999999999995
2023-04-07T16:01:16.290Z,2.5375
2023-04-07T16:04:16.484Z,1.7999999999999998
2023-04-07T16:07:16.624Z,2.6625
2023-04-07T16:11:16.125Z,2.825
2023-04-07T16:14:16.610Z,2.3125
2023-04-07T16:17:16.365Z,2.8625
2023-04-07T16:21:15.850Z,2.2874999999999996
2023-04-07T16:24:16.282Z,2.3625
2023-04-07T16:27:16.159Z,2.575
2023-04-07T16:31:15.856Z,2.55
2023-04-07T16:34:16.153Z,2.7625
2023-04-07T16:37:16.290Z,2.5875
2023-04-07T16:41:16.132Z,3.1
2023-04-07T16:44:16.486Z,2.7125000000000004
2023-04-07T16:47:16.290Z,1.95
2023-04-07T16:51:16.179Z,3.25
2023-04-07T16:54:16.285Z,3.0375
2023-04-07T16:57:16.532Z,2.9375
2023-04-07T17:01:16.938Z,2.625
2023-04-07T17:04:16.802Z,2.525
2023-04-07T17:07:17.750Z,2.3
2023-04-07T17:11:15.680Z,2.9875
2023-04-07T17:14:16.017Z,2.1
2023-04-07T17:17:16.106Z,2.2625
2023-04-07T17:21:16.560Z,2.2625
2023-04-07T17:24:16.847Z,2.275
2023-04-07T17:27:17.200Z,2.2375
2023-04-07T17:31:20.576Z,3.2
2023-04-07T17:34:20.830Z,2.9
2023-04-07T17:37:21.057Z,2.7125
2023-04-07T17:41:16.552Z,4.875
2023-04-07T17:44:17.442Z,5.55
2023-04-07T17:47:16.628Z,3.9749999999999996
2023-04-07T17:51:16.396Z,2.5875
2023-04-07T17:54:16.707Z,2.875
2023-04-07T17:57:18.411Z,6.9
2023-04-07T18:01:18.669Z,4.637499999999999
2023-04-07T18:04:19.207Z,2.9875000000000003
2023-04-07T18:07:19.081Z,2.6875
2023-04-07T18:11:17.193Z,2.675
2023-04-07T18:14:16.799Z,2.375
2023-04-07T18:17:16.800Z,2.425
2023-04-07T18:21:16.122Z,2.1875
2023-04-07T18:24:16.565Z,1.7874999999999999
2023-04-07T18:27:16.621Z,2.9375
2023-04-07T18:31:16.348Z,1.825
2023-04-07T18:34:16.548Z,1.5375
2023-04-07T18:37:16.552Z,1.775
2023-04-07T18:41:16.111Z,1.3375
2023-04-07T18:44:16.114Z,1.75
2023-04-07T18:47:16.280Z,1.9625
2023-04-07T18:51:16.211Z,1.6375000000000002
2023-04-07T18:54:16.896Z,1.8875
2023-04-07T18:57:16.549Z,2.1750000000000003
2023-04-07T19:01:17.176Z,2.375
2023-04-07T19:04:17.502Z,2.125
2023-04-07T19:07:16.663Z,2.1
2023-04-07T19:11:17.386Z,2.225
2023-04-07T19:14:16.903Z,2.5625
2023-04-07T19:17:17.025Z,3.3
2023-04-07T19:21:16.978Z,2.6624999999999996
2023-04-07T19:24:16.848Z,2.3625
2023-04-07T19:27:17.387Z,1.8625
2023-04-07T19:31:16.381Z,2.2375
2023-04-07T19:34:16.871Z,2.8375
2023-04-07T19:37:16.815Z,2.6375
2023-04-07T19:41:15.606Z,2.25
2023-04-07T19:44:18.201Z,2.925
2023-04-07T19:47:16.079Z,2.3125
2023-04-07T19:51:16.755Z,2.8375
2023-04-07T19:54:17.428Z,2.2249999999999996
2023-04-07T19:57:16.475Z,2.1750000000000003
2023-04-07T20:01:17.265Z,3.0125
2023-04-07T20:04:16.688Z,3.625
2023-04-07T20:07:16.637Z,3.45
2023-04-07T20:11:16.477Z,10.525
2023-04-07T20:14:16.876Z,7.550000000000001
2023-04-07T20:17:16.937Z,5.7250000000000005
2023-04-07T20:21:16.595Z,6.5875
2023-04-07T20:24:18.852Z,6.85
2023-04-07T20:27:18.361Z,5.012499999999999
2023-04-07T20:31:16.163Z,3.6875
2023-04-07T20:34:16.692Z,4.3625
2023-04-07T20:37:16.555Z,4.9625
2023-04-07T20:41:16.645Z,13.037500000000001
2023-04-07T20:44:16.778Z,9.8
2023-04-07T20:47:16.811Z,7.925
2023-04-07T20:51:16.121Z,3.4375
2023-04-07T20:54:17.009Z,2.05
2023-04-07T20:57:16.890Z,2.2375
2023-04-07T21:01:16.307Z,2.75
2023-04-07T21:04:16.790Z,2.1875
2023-04-07T21:07:16.722Z,3.3375
2023-04-07T21:11:16.327Z,3
2023-04-07T21:14:16.676Z,3.175
2023-04-07T21:17:16.483Z,2.925
2023-04-07T21:21:16.755Z,2.9375
2023-04-07T21:24:17.038Z,2.6375
2023-04-07T21:27:17.767Z,2.5
2023-04-07T21:31:20.025Z,4.225
2023-04-07T21:34:16.976Z,2.3625
2023-04-07T21:37:17.579Z,2.4749999999999996
2023-04-07T21:41:16.620Z,2.2
2023-04-07T21:44:20.097Z,2.3125
2023-04-07T21:47:17.738Z,2.7625
2023-04-07T21:51:17.480Z,3.0875000000000004
2023-04-07T21:54:17.541Z,3.3
2023-04-07T21:57:17.270Z,3.0375
2023-04-07T22:01:16.964Z,3.85
2023-04-07T22:04:16.495Z,3.4375
2023-04-07T22:07:16.384Z,2.5999999999999996
2023-04-07T22:11:16.488Z,4.05
2023-04-07T22:14:16.953Z,3.25
2023-04-07T22:17:17.337Z,3.0625
2023-04-07T22:21:16.484Z,2.9124999999999996
2023-04-07T22:24:16.566Z,3.3
2023-04-07T22:27:16.070Z,3.5875
2023-04-07T22:31:16.207Z,4.175
2023-04-07T22:34:17.519Z,3.5999999999999996
2023-04-07T22:37:16.163Z,3.3625
2023-04-07T22:41:16.336Z,5.2125
2023-04-07T22:44:16.664Z,6.050000000000001
2023-04-07T22:47:16.751Z,6.8375
2023-04-07T22:51:15.992Z,6.5875
2023-04-07T22:54:17.299Z,4.775
2023-04-07T22:57:16.839Z,4.7
2023-04-07T23:01:16.518Z,3.475
2023-04-07T23:04:16.725Z,3.0500000000000003
2023-04-07T23:07:16.667Z,3.2375
2023-04-07T23:11:16.516Z,3.05
2023-04-07T23:14:16.814Z,2.5375
2023-04-07T23:17:16.784Z,2.2
2023-04-07T23:21:16.295Z,2.95
2023-04-07T23:24:16.677Z,3.3625
2023-04-07T23:27:16.700Z,3.7
2023-04-07T23:31:15.849Z,3.2625
2023-04-07T23:34:16.108Z,3.0250000000000004
2023-04-07T23:37:16.107Z,3.5875
2023-04-07T23:41:16.577Z,3.9000000000000004
2023-04-07T23:44:16.710Z,3.4625
2023-04-07T23:47:16.629Z,3.2125
2023-04-07T23:51:16.048Z,4.5125
2023-04-07T23:54:16.445Z,3.525
2023-04-07T23:57:16.499Z,3.2375000000000003
